This is the latest recevied weather packets stored in our database for station/object KN6ETB-1. If no packets are shown the sender has not sent any weather packets the latest 1 day(s).
| Time | Temp. | Humidity | Pressure | Rain* | Wind** | Luminosity | Snow |
|---|---|---|---|---|---|---|---|
| 1778096385 | 21.67° C | 62% | 1017.5 hPa | 0 mm | - | 436 W/m² | - |
| 1778095476 | 21.11° C | 63% | 1017.8 hPa | 0 mm | - | 395 W/m² | - |
| 1778092748 | 21.67° C | 65% | 1017.7 hPa | 0 mm | - | 842 W/m² | - |
| 1778092443 | 21.11° C | 66% | 1018 hPa | 0 mm | - | 854 W/m² | - |
| 1778090019 | 20° C | 72% | 1018.2 hPa | 0 mm | - | 605 W/m² | - |
| 1778089716 | 20° C | 72% | 1018.1 hPa | 0 mm | - | 583 W/m² | - |
| 1778086989 | 17.78° C | 76% | 1017.9 hPa | 0 mm | - | 399 W/m² | - |
| 1778083959 | 16.67° C | 79% | 1017.8 hPa | 0 mm | - | 223 W/m² | - |
| 1778078284 | 14.44° C | 85% | 1017.5 hPa | 0 mm | - | 83 W/m² | - |
| 1778077679 | 14.44° C | 86% | 1017.5 hPa | 0 mm | - | 68 W/m² | - |
| 1778076470 | 13.89° C | 86% | 1017.2 hPa | 0 mm | - | 42 W/m² | - |
| 1778075257 | 13.89° C | 86% | 1017 hPa | 0 mm | - | 23 W/m² | - |
| 1778074347 | 13.89° C | 86% | 1016.9 hPa | 0 mm | - | 13 W/m² | - |
| 1778074044 | 13.89° C | 86% | 1017 hPa | 0 mm | - | 10 W/m² | - |
| 1778073439 | 13.89° C | 86% | 1017 hPa | 0 mm | - | 3 W/m² | - |
| 1778072832 | 13.89° C | 85% | 1016.7 hPa | 0 mm | - | 0 W/m² | - |
| 1778072529 | 13.89° C | 85% | 1016.9 hPa | 0 mm | - | 0 W/m² | - |
| 1778072227 | 13.89° C | 85% | 1016.9 hPa | 0 mm | - | 0 W/m² | - |
| 1778071017 | 13.89° C | 85% | 1016.8 hPa | 0 mm | - | 0 W/m² | - |
| 1778070716 | 13.89° C | 85% | 1016.5 hPa | 0 mm | - | 0 W/m² | - |
| 1778068597 | 13.89° C | 84% | 1016.6 hPa | 0 mm | - | 0 W/m² | - |
| 1778067992 | 13.89° C | 84% | 1016.4 hPa | 0 mm | - | 0 W/m² | - |
| 1778067690 | 13.89° C | 84% | 1016.6 hPa | 0 mm | - | 0 W/m² | - |
| 1778067085 | 13.89° C | 84% | 1016.3 hPa | 0 mm | - | 0 W/m² | - |
| 1778066781 | 13.89° C | 84% | 1016 hPa | 0 mm | - | 0 W/m² | - |
* Rain latest hour (hover to see other rain measurements)
** Current wind speed in m/s (hover to see current wind gust speed)